This is the latest recevied weather packets stored in our database for station/object OE-4057. If no packets are shown the sender has not sent any weather packets the latest 10 day(s).
| Time | Temp. | Humidity | Pressure | Rain* | Wind** | Luminosity | Snow |
|---|---|---|---|---|---|---|---|
| 1788471672 | 18.33° C | 74% | 1022.5 hPa | - | - | - | - |
| 1788469872 | 18.33° C | 73% | 1022.5 hPa | - | - | - | - |
| 1788466271 | 18.89° C | 71% | 1021.3 hPa | - | - | - | - |
| 1788448271 | 24.44° C | 48% | 1018.9 hPa | - | - | - | - |
| 1788433871 | 23.89° C | 46% | 1020 hPa | - | - | - | - |
| 1788430271 | 22.78° C | 54% | 1021.4 hPa | - | - | - | - |
| 1788428471 | 22.22° C | 55% | 1021.5 hPa | - | - | - | - |
| 1788426671 | 21.11° C | 57% | 1021.8 hPa | - | - | - | - |
| 1788423071 | 19.44° C | 65% | 1023.3 hPa | - | - | - | - |
| 1788421271 | 18.33° C | 69% | 1023.6 hPa | - | - | - | - |
| 1788419471 | 17.22° C | 75% | 1023.9 hPa | - | - | - | - |
| 1788417670 | 15.56° C | 84% | 1024.3 hPa | - | - | - | - |
| 1788415871 | 15° C | 86% | 1024.5 hPa | - | - | - | - |
| 1788414071 | 15° C | 85% | 1023.4 hPa | - | - | - | - |
| 1788412271 | 15° C | 85% | 1023.4 hPa | - | - | - | - |
| 1788410470 | 15° C | 86% | 1023.4 hPa | - | - | - | - |
| 1788408671 | 15° C | 85% | 1023.4 hPa | - | - | - | - |
| 1788405071 | 15° C | 85% | 1023.4 hPa | - | - | - | - |
| 1788401471 | 15.56° C | 84% | 1023.3 hPa | - | - | - | - |
| 1788372671 | 21.11° C | 61% | 1018.6 hPa | - | - | - | - |
| 1788358271 | 25° C | 47% | 1017.7 hPa | - | - | - | - |
| 1788356470 | 24.44° C | 47% | 1017.7 hPa | - | - | - | - |
| 1788354671 | 25.56° C | 43% | 1017.6 hPa | - | - | - | - |
| 1788352870 | 25° C | 42% | 1017.7 hPa | - | - | - | - |
| 1788351071 | 25° C | 45% | 1017.7 hPa | - | - | - | - |
* Rain since midnight (hover to see other rain measurements)
** Current wind speed in m/s (hover to see current wind gust speed)